createdAt,value
2023-05-18T00:01:15.588Z,100.00
2023-05-18T00:03:44.069Z,100.00
2023-05-18T00:06:12.220Z,100.00
2023-05-18T00:08:40.321Z,100.00
2023-05-18T00:11:09.689Z,100.00
2023-05-18T00:13:37.667Z,100.00
2023-05-18T00:16:06.106Z,100.00
2023-05-18T00:18:34.437Z,100.00
2023-05-18T00:21:02.775Z,100.00
2023-05-18T00:23:33.028Z,100.00
2023-05-18T00:26:02.149Z,100.00
2023-05-18T00:28:31.620Z,100.00
2023-05-18T00:31:00.514Z,100.00
2023-05-18T00:33:28.501Z,100.00
2023-05-18T00:35:57.481Z,100.00
2023-05-18T00:38:25.676Z,100.00
2023-05-18T00:40:53.685Z,100.00
2023-05-18T00:43:21.697Z,100.00
2023-05-18T00:45:51.446Z,100.00
2023-05-18T00:48:19.484Z,100.00
2023-05-18T00:50:47.840Z,100.00
2023-05-18T00:53:15.931Z,100.00
2023-05-18T00:55:44.230Z,100.00
2023-05-18T00:58:12.490Z,100.00
2023-05-18T01:00:41.296Z,100.00
2023-05-18T01:03:12.181Z,100.00
2023-05-18T01:05:40.372Z,100.00
2023-05-18T01:08:10.125Z,100.00
2023-05-18T01:10:42.296Z,100.00
2023-05-18T01:13:16.749Z,100.00
2023-05-18T01:15:48.896Z,100.00
2023-05-18T01:18:29.131Z,100.00
2023-05-18T01:21:01.536Z,100.00
2023-05-18T01:24:05.231Z,100.00
2023-05-18T01:26:38.193Z,100.00
2023-05-18T01:29:10.307Z,100.00
2023-05-18T01:31:38.938Z,100.00
2023-05-18T01:34:07.223Z,100.00
2023-05-18T01:36:35.216Z,100.00
2023-05-18T01:39:03.754Z,100.00
2023-05-18T01:41:36.721Z,100.00
2023-05-18T01:44:12.909Z,100.00
2023-05-18T01:46:47.910Z,100.00
2023-05-18T01:49:30.335Z,100.00
2023-05-18T01:52:03.616Z,100.00
2023-05-18T01:54:33.556Z,100.00
2023-05-18T01:57:04.289Z,100.00
2023-05-18T01:59:32.820Z,100.00
2023-05-18T02:02:01.795Z,100.00
2023-05-18T02:04:29.954Z,100.00
2023-05-18T02:06:58.404Z,100.00
2023-05-18T02:09:26.536Z,100.00
2023-05-18T02:11:54.559Z,100.00
2023-05-18T02:14:23.885Z,100.00
2023-05-18T02:16:53.239Z,100.00
2023-05-18T02:19:22.002Z,100.00
2023-05-18T02:21:50.066Z,100.00
2023-05-18T02:24:18.871Z,100.00
2023-05-18T02:26:46.886Z,100.00
2023-05-18T02:29:14.943Z,100.00
2023-05-18T02:31:44.499Z,100.00
2023-05-18T02:34:12.614Z,100.00
2023-05-18T02:36:42.826Z,100.00
2023-05-18T02:39:11.128Z,100.00
2023-05-18T02:41:39.657Z,100.00
2023-05-18T02:44:07.820Z,100.00
2023-05-18T02:46:35.812Z,100.00
2023-05-18T02:49:05.102Z,100.00
2023-05-18T02:51:33.120Z,100.00
2023-05-18T02:54:01.208Z,100.00
2023-05-18T02:56:29.310Z,100.00
2023-05-18T02:58:58.528Z,100.00
2023-05-18T03:01:27.419Z,100.00
2023-05-18T03:03:57.782Z,100.00
2023-05-18T03:06:27.709Z,100.00
2023-05-18T03:08:55.775Z,100.00
2023-05-18T03:11:24.261Z,100.00
2023-05-18T03:13:52.332Z,100.00
2023-05-18T03:16:20.332Z,100.00
2023-05-18T03:18:48.376Z,100.00
2023-05-18T03:21:16.655Z,100.00
2023-05-18T03:23:46.209Z,100.00
2023-05-18T03:26:14.238Z,100.00
2023-05-18T03:28:42.234Z,100.00
2023-05-18T03:31:10.315Z,100.00
2023-05-18T03:33:38.307Z,100.00
2023-05-18T03:36:06.845Z,100.00
2023-05-18T03:38:34.995Z,100.00
2023-05-18T03:41:04.459Z,100.00
2023-05-18T03:43:32.658Z,100.00
2023-05-18T03:46:00.852Z,100.00
2023-05-18T03:48:29.048Z,100.00
2023-05-18T03:50:57.498Z,100.00
2023-05-18T03:53:26.326Z,100.00
2023-05-18T03:55:54.352Z,100.00
2023-05-18T03:58:23.685Z,100.00
2023-05-18T04:00:52.782Z,100.00
2023-05-18T04:03:21.722Z,100.00
2023-05-18T04:05:50.052Z,100.00
2023-05-18T04:08:18.100Z,100.00
2023-05-18T04:10:46.612Z,100.00
2023-05-18T04:13:14.705Z,100.00
2023-05-18T04:15:44.530Z,100.00
2023-05-18T04:18:13.296Z,100.00
2023-05-18T04:20:42.581Z,100.00
2023-05-18T04:23:10.789Z,100.00
2023-05-18T04:25:39.550Z,100.00
2023-05-18T04:28:07.641Z,100.00
2023-05-18T04:30:37.826Z,100.00
2023-05-18T04:33:07.723Z,100.00
2023-05-18T04:35:36.199Z,100.00
2023-05-18T04:38:05.327Z,100.00
2023-05-18T04:40:34.068Z,100.00
2023-05-18T04:43:02.315Z,100.00
2023-05-18T04:45:30.743Z,100.00
2023-05-18T04:47:59.005Z,100.00
2023-05-18T04:50:28.917Z,100.00
2023-05-18T04:52:58.108Z,100.00
2023-05-18T04:55:28.364Z,100.00
2023-05-18T04:57:57.759Z,100.00
2023-05-18T05:00:26.858Z,100.00
2023-05-18T05:02:55.904Z,100.00
2023-05-18T05:05:35.951Z,100.00
2023-05-18T05:08:04.861Z,100.00
2023-05-18T05:10:32.874Z,100.00
2023-05-18T05:13:00.847Z,100.00
2023-05-18T05:15:29.047Z,100.00
2023-05-18T05:17:57.256Z,100.00
2023-05-18T05:20:25.392Z,100.00
2023-05-18T05:22:54.797Z,100.00
2023-05-18T05:25:22.968Z,100.00
2023-05-18T05:27:51.122Z,100.00
2023-05-18T05:30:19.149Z,100.00
2023-05-18T05:32:47.213Z,100.00
2023-05-18T05:35:15.468Z,100.00
2023-05-18T05:37:43.526Z,100.00
2023-05-18T05:40:13.643Z,100.00
2023-05-18T05:42:41.943Z,100.00
2023-05-18T05:45:10.551Z,100.00
2023-05-18T05:47:38.633Z,100.00
2023-05-18T05:50:07.557Z,100.00
2023-05-18T05:52:35.574Z,100.00
2023-05-18T05:55:04.207Z,100.00
2023-05-18T05:57:33.698Z,100.00
2023-05-18T06:00:01.804Z,100.00
2023-05-18T06:02:30.028Z,100.00
2023-05-18T06:04:58.146Z,100.00
2023-05-18T06:07:26.203Z,100.00
2023-05-18T06:09:54.238Z,100.00
2023-05-18T06:12:22.510Z,100.00
2023-05-18T06:14:54.327Z,100.00
2023-05-18T06:17:22.418Z,100.00
2023-05-18T06:19:50.722Z,100.00
2023-05-18T06:22:18.772Z,100.00
2023-05-18T06:24:46.814Z,100.00
2023-05-18T06:27:14.827Z,100.00
2023-05-18T06:29:43.029Z,100.00
2023-05-18T06:32:13.891Z,100.00
2023-05-18T06:34:42.674Z,100.00
2023-05-18T06:37:11.571Z,100.00
2023-05-18T06:39:40.254Z,100.00
2023-05-18T06:42:08.819Z,100.00
2023-05-18T06:44:36.888Z,100.00
2023-05-18T06:47:05.182Z,100.00
2023-05-18T06:49:34.564Z,100.00
2023-05-18T06:52:02.549Z,100.00
2023-05-18T06:54:30.817Z,100.00
2023-05-18T06:56:58.880Z,100.00
2023-05-18T06:59:26.855Z,100.00
2023-05-18T07:01:55.033Z,100.00
2023-05-18T07:04:23.112Z,100.00
2023-05-18T07:06:53.734Z,100.00
2023-05-18T07:09:22.445Z,100.00
2023-05-18T07:11:50.554Z,100.00
2023-05-18T07:14:18.579Z,100.00
2023-05-18T07:16:47.452Z,100.00
2023-05-18T07:19:15.617Z,100.00
2023-05-18T07:21:43.620Z,100.00
2023-05-18T07:24:13.019Z,100.00
2023-05-18T07:26:40.985Z,100.00
2023-05-18T07:29:09.078Z,100.00
2023-05-18T07:31:39.288Z,100.00
2023-05-18T07:34:07.436Z,100.00
2023-05-18T07:36:35.696Z,100.00
2023-05-18T07:39:04.792Z,100.00
2023-05-18T07:41:34.111Z,100.00
2023-05-18T07:44:02.102Z,100.00
2023-05-18T07:46:31.619Z,100.00
2023-05-18T07:49:00.628Z,100.00
2023-05-18T07:51:29.882Z,100.00
2023-05-18T07:53:57.913Z,100.00
2023-05-18T07:56:25.997Z,100.00
2023-05-18T07:58:55.449Z,100.00
2023-05-18T08:01:27.446Z,100.00
2023-05-18T08:03:55.726Z,100.00
2023-05-18T08:06:23.923Z,100.00
2023-05-18T08:08:52.001Z,100.00
2023-05-18T08:11:20.032Z,100.00
2023-05-18T08:13:48.019Z,100.00
2023-05-18T08:16:18.319Z,100.00
2023-05-18T08:18:46.385Z,100.00
2023-05-18T08:21:14.453Z,100.00
2023-05-18T08:23:42.580Z,100.00
2023-05-18T08:26:13.942Z,100.00
2023-05-18T08:28:42.635Z,100.00
2023-05-18T08:31:10.845Z,100.00
2023-05-18T08:33:40.203Z,100.00
2023-05-18T08:36:09.489Z,100.00
2023-05-18T08:38:37.521Z,100.00
2023-05-18T08:41:14.034Z,100.00
2023-05-18T08:43:47.096Z,100.00
2023-05-18T08:46:22.333Z,100.00
2023-05-18T08:48:54.111Z,100.00
2023-05-18T08:51:23.446Z,100.00
2023-05-18T08:53:54.759Z,100.00
2023-05-18T08:56:25.294Z,100.00
2023-05-18T08:58:57.198Z,100.00
2023-05-18T09:01:29.283Z,100.00
2023-05-18T09:03:59.952Z,100.00
2023-05-18T09:06:28.590Z,100.00
2023-05-18T09:08:58.473Z,100.00
2023-05-18T09:11:28.002Z,100.00
2023-05-18T09:13:56.260Z,100.00
2023-05-18T09:16:24.744Z,100.00
2023-05-18T09:18:52.997Z,100.00
2023-05-18T09:21:22.377Z,100.00
2023-05-18T09:23:51.497Z,100.00
2023-05-18T09:26:21.141Z,100.00
2023-05-18T09:28:53.738Z,98.59
2023-05-18T09:31:24.583Z,100.00
2023-05-18T09:33:53.809Z,97.92
2023-05-18T09:36:29.297Z,93.90
2023-05-18T09:38:58.647Z,91.75
2023-05-18T09:41:28.232Z,91.48
2023-05-18T09:43:56.225Z,93.48
2023-05-18T09:46:24.206Z,95.99
2023-05-18T09:48:53.822Z,92.47
2023-05-18T09:51:25.399Z,91.72
2023-05-18T09:53:57.177Z,85.12
2023-05-18T09:56:25.922Z,78.06
2023-05-18T09:58:54.281Z,81.91
2023-05-18T10:01:22.375Z,81.35
2023-05-18T10:03:50.555Z,82.17
2023-05-18T10:06:20.179Z,84.86
2023-05-18T10:08:48.519Z,84.69
2023-05-18T10:11:21.880Z,81.18
2023-05-18T10:13:55.815Z,81.85
2023-05-18T10:16:25.713Z,80.36
2023-05-18T10:18:55.928Z,79.00
2023-05-18T10:21:28.529Z,79.92
2023-05-18T10:23:56.901Z,79.77
2023-05-18T10:26:29.651Z,79.02
2023-05-18T10:29:00.180Z,75.16
2023-05-18T10:31:31.437Z,78.70
2023-05-18T10:34:01.229Z,81.00
2023-05-18T10:36:32.885Z,78.98
2023-05-18T10:39:02.016Z,77.46
2023-05-18T10:41:33.353Z,76.44
2023-05-18T10:44:04.237Z,75.98
2023-05-18T10:46:33.299Z,74.47
2023-05-18T10:49:04.950Z,76.02
2023-05-18T10:51:33.605Z,76.49
2023-05-18T10:54:13.215Z,75.57
2023-05-18T10:56:45.375Z,72.39
2023-05-18T10:59:15.313Z,75.83
2023-05-18T11:01:44.622Z,78.24
2023-05-18T11:04:12.853Z,76.44
2023-05-18T11:06:41.455Z,74.34
2023-05-18T11:09:09.589Z,75.22
2023-05-18T11:14:32.079Z,78.01
2023-05-18T11:17:20.150Z,78.29
2023-05-18T11:20:13.983Z,78.12
2023-05-18T11:22:44.083Z,75.08
2023-05-18T11:25:38.926Z,75.18
2023-05-18T11:28:08.567Z,75.05
2023-05-18T11:30:49.965Z,76.91
2023-05-18T11:33:22.876Z,76.86
2023-05-18T11:36:03.770Z,75.76
2023-05-18T11:38:53.401Z,76.12
2023-05-18T11:41:33.086Z,77.01
2023-05-18T11:44:16.113Z,77.02
2023-05-18T11:46:57.201Z,78.68
2023-05-18T11:49:26.691Z,80.88
2023-05-18T11:52:15.415Z,82.54
2023-05-18T11:54:46.956Z,83.35
2023-05-18T11:57:18.532Z,84.78
2023-05-18T11:59:48.365Z,84.37
2023-05-18T12:02:23.621Z,84.74
2023-05-18T12:04:54.395Z,88.60
2023-05-18T12:07:23.612Z,89.61
2023-05-18T12:09:51.728Z,90.29
2023-05-18T12:12:21.058Z,90.99
2023-05-18T12:14:56.101Z,90.84
2023-05-18T12:17:25.668Z,90.48
2023-05-18T12:19:53.848Z,90.81
2023-05-18T12:22:22.024Z,90.01
2023-05-18T12:24:52.763Z,91.54
2023-05-18T12:27:23.072Z,91.86
2023-05-18T12:29:51.333Z,93.88
2023-05-18T12:32:20.703Z,93.74
2023-05-18T12:34:52.541Z,94.59
2023-05-18T12:37:23.925Z,92.81
2023-05-18T12:39:56.108Z,94.59
2023-05-18T12:42:24.045Z,93.51
2023-05-18T12:44:52.160Z,92.25
2023-05-18T12:47:20.249Z,93.77
2023-05-18T12:49:51.327Z,90.17
2023-05-18T12:52:19.348Z,89.17
2023-05-18T12:54:55.194Z,89.59
2023-05-18T12:57:26.588Z,93.04
2023-05-18T12:59:55.178Z,93.90
2023-05-18T13:02:34.073Z,95.32
2023-05-18T13:05:09.696Z,95.26
2023-05-18T13:07:40.070Z,96.15
2023-05-18T13:10:10.067Z,96.86
2023-05-18T13:12:41.331Z,93.60
2023-05-18T13:15:17.465Z,92.29
2023-05-18T13:18:00.411Z,91.15
2023-05-18T13:20:36.468Z,91.98
2023-05-18T13:23:06.759Z,90.25
2023-05-18T13:25:34.719Z,91.78
2023-05-18T13:28:02.807Z,92.08
2023-05-18T13:30:31.054Z,90.00
2023-05-18T13:33:00.783Z,90.86
2023-05-18T13:35:29.331Z,91.37
2023-05-18T13:37:58.940Z,90.59
2023-05-18T13:40:26.860Z,90.26
2023-05-18T13:42:54.894Z,93.61
2023-05-18T13:45:22.968Z,96.23
2023-05-18T13:47:51.879Z,95.95
2023-05-18T13:50:20.767Z,95.01
2023-05-18T13:52:48.957Z,94.28
2023-05-18T13:55:18.368Z,93.29
2023-05-18T13:57:46.618Z,92.87
2023-05-18T14:00:17.088Z,91.98
2023-05-18T14:02:46.224Z,91.87
2023-05-18T14:05:15.223Z,91.29
2023-05-18T14:07:44.077Z,91.11
2023-05-18T14:10:13.354Z,91.26
2023-05-18T14:12:43.490Z,92.06
2023-05-18T14:15:13.855Z,91.37
2023-05-18T14:17:42.555Z,91.80
2023-05-18T14:20:11.593Z,90.05
2023-05-18T14:22:39.654Z,86.16
2023-05-18T14:25:08.083Z,84.14
2023-05-18T14:27:36.024Z,82.56
2023-05-18T14:30:08.396Z,81.50
2023-05-18T14:32:36.507Z,82.12
2023-05-18T14:35:04.796Z,79.77
2023-05-18T14:37:33.555Z,80.28
2023-05-18T14:40:01.600Z,80.70
2023-05-18T14:42:29.565Z,81.42
2023-05-18T14:44:57.556Z,81.97
2023-05-18T14:47:27.004Z,81.00
2023-05-18T14:49:55.106Z,80.81
2023-05-18T14:52:23.132Z,81.52
2023-05-18T14:54:51.238Z,80.73
2023-05-18T14:57:19.186Z,82.10
2023-05-18T14:59:47.149Z,82.53
2023-05-18T15:02:15.252Z,82.97
2023-05-18T15:04:44.656Z,80.73
2023-05-18T15:07:12.918Z,80.66
2023-05-18T15:09:40.930Z,79.44
2023-05-18T15:12:09.275Z,79.66
2023-05-18T15:14:38.008Z,77.68
2023-05-18T15:17:07.466Z,76.94
2023-05-18T15:19:35.619Z,77.16
2023-05-18T15:22:05.172Z,77.58
2023-05-18T15:24:33.103Z,77.66
2023-05-18T15:27:03.542Z,83.84
2023-05-18T15:29:31.544Z,84.13
2023-05-18T15:31:59.589Z,82.64
2023-05-18T15:34:27.655Z,81.38
2023-05-18T15:36:55.590Z,80.97
2023-05-18T15:39:24.920Z,81.46
2023-05-18T15:41:52.999Z,82.37
2023-05-18T15:44:21.038Z,82.00
2023-05-18T15:46:49.117Z,82.15
2023-05-18T15:49:17.108Z,82.19
2023-05-18T15:51:45.044Z,82.48
2023-05-18T15:54:13.001Z,83.32
2023-05-18T15:56:42.445Z,83.58
2023-05-18T15:59:10.539Z,85.11
2023-05-18T16:01:38.606Z,82.94
2023-05-18T16:04:06.673Z,81.30
2023-05-18T16:06:36.477Z,81.59
2023-05-18T16:09:07.223Z,81.48
2023-05-18T16:11:36.066Z,81.70
2023-05-18T16:14:06.219Z,82.21
2023-05-18T16:16:34.188Z,84.96
2023-05-18T16:19:03.105Z,88.25
2023-05-18T16:21:31.722Z,91.58
2023-05-18T16:24:00.080Z,94.61
2023-05-18T16:26:28.094Z,97.61
2023-05-18T16:28:56.086Z,98.81
2023-05-18T16:31:25.512Z,100.00
2023-05-18T16:33:53.434Z,100.00
2023-05-18T16:36:21.705Z,100.00
2023-05-18T16:38:49.703Z,100.00
2023-05-18T16:41:18.084Z,100.00
2023-05-18T16:43:46.207Z,100.00
2023-05-18T16:46:14.131Z,100.00
2023-05-18T16:48:43.480Z,100.00
2023-05-18T16:51:11.420Z,99.80
2023-05-18T16:53:39.354Z,98.31
2023-05-18T16:56:07.697Z,97.57
2023-05-18T16:58:35.769Z,96.73
2023-05-18T17:01:09.753Z,98.15
2023-05-18T17:03:45.389Z,99.54
2023-05-18T17:06:13.400Z,100.00
2023-05-18T17:08:41.417Z,100.00
2023-05-18T17:11:09.408Z,100.00
2023-05-18T17:13:37.444Z,100.00
2023-05-18T17:16:06.637Z,100.00
2023-05-18T17:18:34.597Z,100.00
2023-05-18T17:21:03.900Z,100.00
2023-05-18T17:23:32.378Z,100.00
2023-05-18T17:26:05.752Z,100.00
2023-05-18T17:28:34.543Z,100.00
2023-05-18T17:31:02.499Z,100.00
2023-05-18T17:33:30.791Z,100.00
2023-05-18T17:35:59.088Z,100.00
2023-05-18T17:38:28.608Z,100.00
2023-05-18T17:40:56.662Z,100.00
2023-05-18T17:43:24.634Z,100.00
2023-05-18T17:45:52.641Z,100.00
2023-05-18T17:48:20.742Z,100.00
2023-05-18T17:50:48.696Z,100.00
2023-05-18T17:53:17.070Z,100.00
2023-05-18T17:55:46.413Z,100.00
2023-05-18T17:58:14.477Z,100.00
2023-05-18T18:00:42.409Z,100.00
2023-05-18T18:03:10.557Z,100.00
2023-05-18T18:05:38.892Z,100.00
2023-05-18T18:08:07.242Z,100.00
2023-05-18T18:10:35.311Z,100.00
2023-05-18T18:13:04.640Z,100.00
2023-05-18T18:15:32.805Z,100.00
2023-05-18T18:18:00.875Z,100.00
2023-05-18T18:20:29.161Z,100.00
2023-05-18T18:22:57.294Z,100.00
2023-05-18T18:25:25.231Z,100.00
2023-05-18T18:27:53.205Z,100.00
2023-05-18T18:30:22.699Z,100.00
2023-05-18T18:32:51.253Z,100.00
2023-05-18T18:35:19.333Z,100.00
2023-05-18T18:37:47.393Z,100.00
2023-05-18T18:40:15.701Z,100.00
2023-05-18T18:42:43.672Z,100.00
2023-05-18T18:45:12.576Z,100.00
2023-05-18T18:47:42.125Z,100.00
2023-05-18T18:50:11.409Z,100.00
2023-05-18T18:52:39.408Z,100.00
2023-05-18T18:55:08.263Z,100.00
2023-05-18T18:57:36.234Z,100.00
2023-05-18T19:00:06.941Z,100.00
2023-05-18T19:02:34.889Z,100.00
2023-05-18T19:05:05.512Z,100.00
2023-05-18T19:07:33.911Z,100.00
2023-05-18T19:10:01.897Z,100.00
2023-05-18T19:12:29.904Z,100.00
2023-05-18T19:14:57.923Z,100.00
2023-05-18T19:17:26.793Z,100.00
2023-05-18T19:19:54.915Z,100.00
2023-05-18T19:22:24.219Z,100.00
2023-05-18T19:24:52.172Z,100.00
2023-05-18T19:27:20.443Z,100.00
2023-05-18T19:29:48.466Z,100.00
2023-05-18T19:32:16.459Z,100.00
2023-05-18T19:34:44.477Z,100.00
2023-05-18T19:37:12.572Z,100.00
2023-05-18T19:39:41.845Z,100.00
2023-05-18T19:42:09.758Z,100.00
2023-05-18T19:44:37.741Z,100.00
2023-05-18T19:47:06.071Z,100.00
2023-05-18T19:49:34.109Z,100.00
2023-05-18T19:52:07.897Z,100.00
2023-05-18T19:54:36.559Z,100.00
2023-05-18T19:57:06.233Z,100.00
2023-05-18T19:59:34.183Z,100.00
2023-05-18T20:02:05.130Z,100.00
2023-05-18T20:07:01.954Z,100.00
2023-05-18T20:09:30.901Z,100.00
2023-05-18T20:11:59.488Z,100.00
2023-05-18T20:14:30.561Z,100.00
2023-05-18T20:16:59.477Z,100.00
2023-05-18T20:19:28.601Z,100.00
2023-05-18T20:21:56.553Z,100.00
2023-05-18T20:24:25.654Z,100.00
2023-05-18T20:26:53.678Z,100.00
2023-05-18T20:29:21.634Z,100.00
2023-05-18T20:31:51.181Z,100.00
2023-05-18T20:34:19.335Z,100.00
2023-05-18T20:36:47.378Z,100.00
2023-05-18T20:39:15.519Z,100.00
2023-05-18T20:41:43.546Z,100.00
2023-05-18T20:44:11.691Z,100.00
2023-05-18T20:46:42.704Z,100.00
2023-05-18T20:49:13.210Z,100.00
2023-05-18T20:51:41.209Z,100.00
2023-05-18T20:54:10.311Z,100.00
2023-05-18T20:56:38.352Z,100.00
2023-05-18T20:59:06.544Z,100.00
2023-05-18T21:01:39.293Z,100.00
2023-05-18T21:04:09.694Z,100.00
2023-05-18T21:06:41.330Z,100.00
2023-05-18T21:09:09.367Z,100.00
2023-05-18T21:11:37.439Z,100.00
2023-05-18T21:14:05.409Z,100.00
2023-05-18T21:16:33.518Z,99.30
2023-05-18T21:19:02.085Z,98.04
2023-05-18T21:21:30.109Z,98.00
2023-05-18T21:23:59.449Z,95.98
2023-05-18T21:26:27.887Z,96.92
2023-05-18T21:28:55.797Z,95.96
2023-05-18T21:31:23.915Z,95.42
2023-05-18T21:33:52.780Z,95.73
2023-05-18T21:36:26.774Z,94.64
2023-05-18T21:38:54.790Z,94.29
2023-05-18T21:41:24.041Z,92.93
2023-05-18T21:43:52.028Z,95.45
2023-05-18T21:46:20.122Z,94.32
2023-05-18T21:48:48.190Z,93.52
2023-05-18T21:51:16.274Z,93.46
2023-05-18T21:53:44.300Z,94.43
2023-05-18T21:56:12.458Z,94.23
2023-05-18T21:58:41.834Z,93.87
2023-05-18T22:01:09.916Z,93.52
2023-05-18T22:03:38.049Z,92.78
2023-05-18T22:06:06.041Z,91.57
2023-05-18T22:08:34.132Z,90.49
2023-05-18T22:11:02.093Z,90.33
2023-05-18T22:13:30.633Z,90.36
2023-05-18T22:15:59.960Z,90.25
2023-05-18T22:18:27.970Z,89.94
2023-05-18T22:20:56.152Z,89.26
2023-05-18T22:23:24.941Z,89.20
2023-05-18T22:25:53.142Z,88.62
2023-05-18T22:28:22.175Z,88.72
2023-05-18T22:30:50.223Z,88.75
2023-05-18T22:33:21.268Z,88.09
2023-05-18T22:35:49.595Z,86.24
2023-05-18T22:38:17.953Z,87.31
2023-05-18T22:40:46.237Z,86.38
2023-05-18T22:43:14.235Z,86.58
2023-05-18T22:45:42.163Z,86.56
2023-05-18T22:48:10.170Z,87.04
2023-05-18T22:50:39.554Z,86.52
2023-05-18T22:53:10.244Z,86.45
2023-05-18T22:55:38.187Z,86.08
2023-05-18T22:58:06.252Z,86.42
2023-05-18T23:00:34.354Z,85.76
2023-05-18T23:03:02.407Z,86.16
2023-05-18T23:05:32.665Z,86.52
2023-05-18T23:08:02.818Z,85.68
2023-05-18T23:10:31.080Z,85.76
2023-05-18T23:12:59.833Z,84.78
2023-05-18T23:15:27.849Z,84.81
2023-05-18T23:17:55.788Z,85.08
2023-05-18T23:20:24.035Z,84.39
2023-05-18T23:22:52.166Z,84.56
2023-05-18T23:25:21.481Z,85.86
2023-05-18T23:27:49.446Z,84.74
2023-05-18T23:30:17.416Z,84.50
2023-05-18T23:32:46.894Z,84.66
2023-05-18T23:35:16.492Z,84.19
2023-05-18T23:37:48.291Z,84.94
2023-05-18T23:40:18.988Z,85.21
2023-05-18T23:42:49.132Z,83.96
2023-05-18T23:45:17.678Z,85.15
2023-05-18T23:47:46.961Z,84.59
2023-05-18T23:50:16.014Z,84.38
2023-05-18T23:52:47.504Z,83.67
2023-05-18T23:55:16.401Z,84.06
2023-05-18T23:57:44.829Z,83.65
